This is the latest recevied weather packets stored in our database for station/object SQ5OUZ-8. If no packets are shown the sender has not sent any weather packets the latest 10 day(s).
| Time | Temp. | Humidity | Pressure | Rain* | Wind** | Luminosity | Snow |
|---|---|---|---|---|---|---|---|
| 1777916560 | 25.56° C | 25% | 1011 hPa | - | - | - | - |
| 1777915408 | 26.67° C | 22% | 1011 hPa | - | - | - | - |
| 1777914432 | 26.67° C | 21% | 1011 hPa | - | - | - | - |
| 1777913396 | 27.22° C | 20% | 1011 hPa | - | - | - | - |
| 1777912289 | 27.78° C | 20% | 1011 hPa | - | - | - | - |
| 1777911168 | 28.33° C | 19% | 1011 hPa | - | - | - | - |
| 1777910095 | 29.44° C | 18% | 1011 hPa | - | - | - | - |
| 1777909122 | 30.56° C | 17% | 1011 hPa | - | - | - | - |
| 1777907952 | 30.56° C | 16% | 1011 hPa | - | - | - | - |
| 1777906873 | 32.22° C | 15% | 1011 hPa | - | - | - | - |
| 1777905880 | 31.67° C | 16% | 1012 hPa | - | - | - | - |
| 1777904868 | 32.22° C | 14% | 1011 hPa | - | - | - | - |
| 1777903726 | 33.33° C | 13% | 1012 hPa | - | - | - | - |
| 1777902758 | 34.44° C | 13% | 1012 hPa | - | - | - | - |
| 1777901749 | 31.67° C | 15% | 1012 hPa | - | - | - | - |
| 1777900594 | 33.33° C | 13% | 1012 hPa | - | - | - | - |
| 1777899499 | 32.78° C | 14% | 1012 hPa | - | - | - | - |
| 1777898529 | 33.33° C | 14% | 1012 hPa | - | - | - | - |
| 1777897571 | 33.33° C | 14% | 1012 hPa | - | - | - | - |
| 1777896503 | 32.78° C | 15% | 1013 hPa | - | - | - | - |
| 1777895542 | 32.78° C | 16% | 1013 hPa | - | - | - | - |
| 1777894510 | 31.67° C | 16% | 1013 hPa | - | - | - | - |
| 1777893329 | 30.56° C | 19% | 1013 hPa | - | - | - | - |
| 1777892287 | 32.22° C | 17% | 1013 hPa | - | - | - | - |
| 1777891197 | 31.11° C | 18% | 1013 hPa | - | - | - | - |
* Rain since midnight (hover to see other rain measurements)
** Current wind speed in m/s (hover to see current wind gust speed)